Time;durP1;ratioP1;P1;durP2;ratioP2;P2;SDS_P1;SDS_P2;PMS_P1;PMS_P2;Temp;Humidity;BMP_temperature;BMP_pressure;BME280_temperature;BME280_humidity;BME280_pressure;Samples;Min_cycle;Max_cycle;Signal;HPM_P1;HPM_P2
2022/04/21 00:02:06;;;;;;;;;;;;;;;;;;;;;
2022/04/21 00:05:46;;;;;;;;;;;;;;;18.13;42.64;100703.77;103275;1323;73584;-82
2022/04/21 00:08:26;;;;;;;;;;;;;;;18.13;42.63;100709.68;103682;1318;61263;-84
2022/04/21 00:11:35;;;;;;;;;;;;;;;18.13;42.68;100705.42;103801;1318;61287;-83
2022/04/21 00:14:44;;;;;;;;;;;;;;;18.13;42.72;100702.59;103829;1318;73732;-82
2022/04/21 00:17:59;;;;;;;;;;;;;;;18.12;42.51;100703.49;103819;1318;75814;-82
2022/04/21 00:23:26;;;;;;;;;;;;;;;18.12;42.67;100700.68;102712;1329;61188;-86
2022/04/21 00:24:39;;;;;;;;;;;;;;;18.11;42.67;100705.31;102942;1326;61391;-87
2022/04/21 00:27:45;;;;;;;;;;;;;;;18.11;42.60;100703.70;102913;1326;71997;-84
2022/04/21 00:31:05;;;;;;;;;;;;;;;18.11;42.63;100703.73;102951;1326;72916;-79
2022/04/21 00:34:11;;;;;;;;;;;;;;;18.11;42.63;100706.59;102755;1329;61212;-85
2022/04/21 00:37:13;;;;;;;;;;;;;;;18.11;42.69;100706.80;102758;1330;61200;-81
2022/04/21 00:40:19;;;;;;;;;;;;;;;18.11;42.61;100706.80;102727;1330;74227;-81
2022/04/21 00:46:51;;;;;;;;;;;;;;;18.09;42.68;100717.00;102098;1336;61204;-87
2022/04/21 00:50:15;;;;;;;;;;;;;;;18.10;42.65;100717.52;101868;1342;61388;-83
2022/04/21 00:53:37;;;;;;;;;;;;;;;18.09;42.65;100722.53;101648;1348;72766;-82
2022/04/21 00:56:42;;;;;;;;;;;;;;;18.09;42.62;100720.05;101380;1353;74907;-79
2022/04/21 00:59:59;;;;;;;;;;;;;;;;;;;;;
2022/04/21 01:03:36;;;;;;;;;;;;;;;18.08;42.64;100722.42;101563;1351;61186;-80
2022/04/21 01:06:38;;;;;;;;;;;;;;;18.07;42.63;100734.39;101550;1351;71716;-83
2022/04/21 01:10:02;;;;;;;;;;;;;;;;;;;;;
2022/04/21 01:13:08;;;;;;;;;;;;;;;;;;;;;
2022/04/21 01:16:21;;;;;;;;;;;;;;;18.07;42.61;100729.59;101058;1357;61286;-81
2022/04/21 01:19:36;;;;;;;;;;;;;;;18.07;42.69;100722.11;101031;1357;72995;-78
2022/04/21 01:22:50;;;;;;;;;;;;;;;18.07;42.68;100720.35;100781;1358;73498;-82
2022/04/21 01:26:20;;;;;;;;;;;;;;;18.06;42.51;100716.98;101225;1354;61259;-82
2022/04/21 01:29:29;;;;;;;;;;;;;;;18.06;42.71;100709.73;101404;1354;61292;-86
2022/04/21 01:32:51;;;;;;;;;;;;;;;;;;;;;
2022/04/21 01:36:06;;;;;;;;;;;;;;;;;;;;;
2022/04/21 01:43:08;;;;;;;;;;;;;;;;;;;;;
2022/04/21 01:46:06;;;;;;;;;;;;;;;18.05;42.61;100755.73;101953;1338;73845;-83
2022/04/21 01:49:21;;;;;;;;;;;;;;;;;;;;;
2022/04/21 01:52:31;;;;;;;;;;;;;;;18.04;42.75;100751.67;102579;1325;61213;-83
2022/04/21 01:56:02;;;;;;;;;;;;;;;18.04;42.71;100751.86;102539;1332;61461;-83
2022/04/21 01:58:44;;;;;;;;;;;;;;;;;;;;;
2022/04/21 02:05:02;;;;;;;;;;;;;;;18.04;42.68;100762.23;102764;1328;61234;-82
2022/04/21 02:08:08;;;;;;;;;;;;;;;18.03;42.72;100762.44;102810;1325;61114;-83
2022/04/21 02:11:12;;;;;;;;;;;;;;;18.02;42.62;100769.23;102498;1332;74347;-84
2022/04/21 02:14:47;;;;;;;;;;;;;;;18.02;42.56;100768.88;102515;1332;73771;-83
2022/04/21 02:20:59;;;;;;;;;;;;;;;18.02;42.67;100764.48;101762;1344;61432;-86
2022/04/21 02:24:13;;;;;;;;;;;;;;;18.02;42.64;100763.75;101631;1347;72930;-77
2022/04/21 02:27:31;;;;;;;;;;;;;;;18.01;42.63;100765.74;101401;1353;73482;-81
2022/04/21 02:30:39;;;;;;;;;;;;;;;18.01;42.67;100766.46;100811;1358;61351;-85
2022/04/21 02:34:31;;;;;;;;;;;;;;;18.01;42.59;100768.06;99786;1367;61244;-83
2022/04/21 02:37:23;;;;;;;;;;;;;;;18.01;42.70;100767.37;99843;1367;72218;-83
2022/04/21 02:40:46;;;;;;;;;;;;;;;18.01;42.56;100763.45;99677;1368;73544;-84
2022/04/21 02:44:13;;;;;;;;;;;;;;;18.01;42.63;100760.61;99977;1367;61401;-90
2022/04/21 02:50:43;;;;;;;;;;;;;;;18.00;42.74;100766.52;100745;1358;74127;-84
2022/04/21 03:01:09;;;;;;;;;;;;;;;18.00;42.69;100777.77;101272;1350;61523;-83
2022/04/21 03:04:24;;;;;;;;;;;;;;;;;;;;;
2022/04/21 03:08:16;;;;;;;;;;;;;;;17.99;42.59;100778.88;101673;1344;76386;-84
2022/04/21 03:11:09;;;;;;;;;;;;;;;;;;;;;
2022/04/21 03:13:52;;;;;;;;;;;;;;;;;;;;;
2022/04/21 03:17:08;;;;;;;;;;;;;;;17.98;42.65;100787.65;101912;1338;72319;-81
2022/04/21 03:27:16;;;;;;;;;;;;;;;;;;;;;
2022/04/21 03:30:32;;;;;;;;;;;;;;;17.97;42.60;100785.39;101567;1350;72985;-78
2022/04/21 03:33:37;;;;;;;;;;;;;;;17.97;42.68;100789.48;101333;1347;72672;-84
2022/04/21 03:37:02;;;;;;;;;;;;;;;;;;;;;
2022/04/21 03:40:31;;;;;;;;;;;;;;;17.96;42.76;100792.57;101453;1352;61527;-86
2022/04/21 03:43:42;;;;;;;;;;;;;;;17.96;42.76;100792.58;101110;1356;73179;-80
2022/04/21 03:46:57;;;;;;;;;;;;;;;;;;;;;
2022/04/21 03:50:31;;;;;;;;;;;;;;;17.96;42.67;100789.41;101441;1352;61511;-86
2022/04/21 03:53:20;;;;;;;;;;;;;;;;;;;;;
2022/04/21 03:56:21;;;;;;;;;;;;;;;17.96;42.62;100804.88;101381;1352;71630;-82
2022/04/21 03:59:37;;;;;;;;;;;;;;;;;;;;;
2022/04/21 04:02:53;;;;;;;;;;;;;;;;;;;;;
2022/04/21 04:13:08;;;;;;;;;;;;;;;;;;;;;
2022/04/21 04:16:33;;;;;;;;;;;;;;;17.95;42.75;100809.94;102774;1329;61186;-84
2022/04/21 04:19:33;;;;;;;;;;;;;;;17.94;42.65;100804.80;102670;1326;61439;-86
2022/04/21 04:25:48;;;;;;;;;;;;;;;17.94;42.54;100795.73;103020;1325;73804;-82
2022/04/21 04:29:25;;;;;;;;;;;;;;;;;;;;;
2022/04/21 04:35:33;;;;;;;;;;;;;;;17.93;42.39;100792.01;102307;1335;72845;-84
2022/04/21 04:38:49;;;;;;;;;;;;;;;;;;;;;
2022/04/21 04:49:08;;;;;;;;;;;;;;;17.92;42.36;100786.39;102361;1335;73319;-84
2022/04/21 04:52:31;;;;;;;;;;;;;;;;;;;;;
2022/04/21 04:55:50;;;;;;;;;;;;;;;;;;;;;
2022/04/21 04:58:56;;;;;;;;;;;;;;;17.92;42.44;100796.17;101902;1341;61388;-84
2022/04/21 05:01:51;;;;;;;;;;;;;;;17.92;42.37;100795.48;101936;1338;72803;-85
2022/04/21 05:04:58;;;;;;;;;;;;;;;17.91;42.36;100794.42;102116;1335;73812;-85
2022/04/21 05:11:37;;;;;;;;;;;;;;;17.91;42.28;100802.63;102111;1335;61183;-81
2022/04/21 05:14:51;;;;;;;;;;;;;;;17.91;42.32;100797.64;102538;1332;72847;-82
2022/04/21 05:18:08;;;;;;;;;;;;;;;;;;;;;
2022/04/21 05:21:16;;;;;;;;;;;;;;;17.91;42.23;100805.14;102975;1326;61209;-83
2022/04/21 05:24:39;;;;;;;;;;;;;;;17.91;42.31;100806.38;103713;1319;61350;-84
2022/04/21 05:28:26;;;;;;;;;;;;;;;17.90;42.15;100806.60;103534;1318;74149;-83
2022/04/21 05:34:45;;;;;;;;;;;;;;;;;;;;;
2022/04/21 05:38:01;;;;;;;;;;;;;;;;;;;;;
2022/04/21 05:41:18;;;;;;;;;;;;;;;17.90;42.29;100805.91;102419;1332;72830;-85
2022/04/21 05:44:44;;;;;;;;;;;;;;;;;;;;;
2022/04/21 05:47:45;;;;;;;;;;;;;;;17.90;42.40;100818.89;101772;1337;61242;-83
2022/04/21 05:50:53;;;;;;;;;;;;;;;17.90;42.38;100819.61;102101;1335;61308;-83
2022/04/21 05:54:10;;;;;;;;;;;;;;;;;;;;;
2022/04/21 05:57:25;;;;;;;;;;;;;;;17.90;42.40;100827.81;101843;1340;75155;-83
2022/04/21 06:00:34;;;;;;;;;;;;;;;17.89;42.35;100826.57;101728;1345;61327;-87
2022/04/21 06:03:59;;;;;;;;;;;;;;;17.89;42.27;100831.91;101502;1350;61625;-82
2022/04/21 06:07:05;;;;;;;;;;;;;;;17.89;42.28;100830.47;100373;1356;71888;-82
2022/04/21 06:10:32;;;;;;;;;;;;;;;17.89;42.24;100835.47;100986;1350;74948;-84
2022/04/21 06:13:48;;;;;;;;;;;;;;;17.90;42.20;100835.29;101561;1347;62516;-83
2022/04/21 06:17:06;;;;;;;;;;;;;;;;;;;;;
2022/04/21 06:20:08;;;;;;;;;;;;;;;;;;;;;
2022/04/21 06:26:44;;;;;;;;;;;;;;;;;;;;;
2022/04/21 06:29:53;;;;;;;;;;;;;;;;;;;;;
2022/04/21 06:33:30;;;;;;;;;;;;;;;;;;;;;
2022/04/21 06:36:36;;;;;;;;;;;;;;;17.92;41.72;100833.77;101664;1342;75835;-81
2022/04/21 06:39:48;;;;;;;;;;;;;;;17.92;41.75;100838.73;101870;1338;61515;-81
2022/04/21 06:43:01;;;;;;;;;;;;;;;17.92;41.68;100836.61;102050;1332;61299;-81
2022/04/21 06:49:31;;;;;;;;;;;;;;;17.93;41.62;100839.40;98583;1329;5836206;-81
2022/04/21 06:52:47;;;;;;;;;;;;;;;17.94;41.62;100837.02;102411;1332;61290;-79
2022/04/21 06:55:55;;;;;;;;;;;;;;;17.95;41.55;100838.24;102649;1329;61178;-80
2022/04/21 07:02:12;;;;;;;;;;;;;;;;;;;;;
2022/04/21 07:05:34;;;;;;;;;;;;;;;;;;;;;
2022/04/21 07:08:53;;;;;;;;;;;;;;;;;;;;;
2022/04/21 07:11:59;;;;;;;;;;;;;;;17.98;41.39;100840.39;102306;1334;72746;-82
2022/04/21 07:15:05;;;;;;;;;;;;;;;17.98;41.32;100845.71;102181;1335;74937;-81
2022/04/21 07:18:13;;;;;;;;;;;;;;;;;;;;;
2022/04/21 07:21:25;;;;;;;;;;;;;;;;;;;;;
2022/04/21 07:24:21;;;;;;;;;;;;;;;18.00;41.26;100848.97;101900;1340;73018;-82
2022/04/21 07:27:36;;;;;;;;;;;;;;;;;;;;;
2022/04/21 07:30:55;;;;;;;;;;;;;;;18.02;41.20;100850.32;101761;1344;61370;-84
2022/04/21 07:34:28;;;;;;;;;;;;;;;18.02;41.12;100847.45;101799;1341;61373;-83
2022/04/21 07:37:19;;;;;;;;;;;;;;;;;;;;;
2022/04/21 07:41:02;;;;;;;;;;;;;;;18.04;41.14;100841.48;101650;1345;74882;-78
2022/04/21 07:43:45;;;;;;;;;;;;;;;;;;;;;
2022/04/21 07:47:12;;;;;;;;;;;;;;;18.05;41.12;100844.05;101877;1338;61429;-83
2022/04/21 07:50:25;;;;;;;;;;;;;;;18.06;41.06;100851.63;102302;1333;71818;-81
2022/04/21 07:56:58;;;;;;;;;;;;;;;18.07;41.04;100850.68;102507;1332;61322;-87
2022/04/21 08:00:03;;;;;;;;;;;;;;;18.08;41.13;100847.80;102546;1329;61233;-84
2022/04/21 08:03:24;;;;;;;;;;;;;;;;;;;;;
2022/04/21 08:06:26;;;;;;;;;;;;;;;;;;;;;
2022/04/21 08:09:12;;;;;;;;;;;;;;;18.10;41.22;100849.65;102540;1329;61165;-83
2022/04/21 08:12:29;;;;;;;;;;;;;;;18.10;41.16;100845.03;102426;1333;61342;-85
2022/04/21 08:15:35;;;;;;;;;;;;;;;18.11;41.18;100838.21;101985;1338;74347;-81
2022/04/21 08:18:52;;;;;;;;;;;;;;;;;;;;;
2022/04/21 08:22:12;;;;;;;;;;;;;;;;;;;;;
2022/04/21 08:35:05;;;;;;;;;;;;;;;18.13;41.34;100820.46;102020;1337;61302;-84
2022/04/21 08:38:10;;;;;;;;;;;;;;;18.13;41.31;100816.68;102040;1337;61169;-84
2022/04/21 08:41:10;;;;;;;;;;;;;;;18.13;41.42;100816.70;101868;1341;73748;-84
2022/04/21 08:44:16;;;;;;;;;;;;;;;18.14;41.31;100815.76;101883;1338;73818;-81
2022/04/21 08:47:31;;;;;;;;;;;;;;;18.14;41.33;100810.23;101849;1338;61235;-79
2022/04/21 08:50:58;;;;;;;;;;;;;;;;;;;;;
2022/04/21 08:53:55;;;;;;;;;;;;;;;18.14;41.44;100802.58;102747;1329;72498;-86
2022/04/21 08:56:52;;;;;;;;;;;;;;;;;;;;;
2022/04/21 08:59:56;;;;;;;;;;;;;;;;;;;;;
2022/04/21 09:03:15;;;;;;;;;;;;;;;18.15;41.52;100803.40;103277;1320;61054;-81
2022/04/21 09:06:24;;;;;;;;;;;;;;;;;;;;;
2022/04/21 09:12:42;;;;;;;;;;;;;;;18.15;41.51;100791.50;102467;1332;61568;-83
2022/04/21 09:16:25;;;;;;;;;;;;;;;;;;;;;
2022/04/21 09:19:31;;;;;;;;;;;;;;;18.13;41.51;100782.67;102626;1326;73387;-81
2022/04/21 09:22:46;;;;;;;;;;;;;;;18.13;41.41;100776.80;102710;1326;74834;-81
2022/04/21 09:25:51;;;;;;;;;;;;;;;18.13;41.33;100779.87;102407;1332;61325;-82
2022/04/21 09:29:05;;;;;;;;;;;;;;;18.13;41.31;100784.31;102139;1335;61230;-81
2022/04/21 09:35:39;;;;;;;;;;;;;;;;;;;;;
2022/04/21 09:42:51;;;;;;;;;;;;;;;18.10;41.14;100762.74;101197;1354;61613;-82
2022/04/21 09:49:05;;;;;;;;;;;;;;;18.11;41.02;100767.16;101419;1344;73651;-82
2022/04/21 09:52:12;;;;;;;;;;;;;;;18.11;41.07;100764.13;101658;1344;61359;-83
2022/04/21 09:55:31;;;;;;;;;;;;;;;;;;;;;
2022/04/21 09:59:12;;;;;;;;;;;;;;;18.11;40.89;100759.69;101693;1344;71389;-86
2022/04/21 10:02:03;;;;;;;;;;;;;;;;;;;;;
2022/04/21 10:05:20;;;;;;;;;;;;;;;;;;;;;
2022/04/21 10:08:28;;;;;;;;;;;;;;;18.10;40.87;100747.96;101788;1344;59657;-83
2022/04/21 10:11:44;;;;;;;;;;;;;;;;;;;;;
2022/04/21 10:15:01;;;;;;;;;;;;;;;18.08;40.71;100748.97;101870;1338;73664;-81
2022/04/21 10:18:10;;;;;;;;;;;;;;;18.07;40.60;100747.92;101939;1338;61467;-82
2022/04/21 10:21:25;;;;;;;;;;;;;;;;;;;;;
2022/04/21 10:25:00;;;;;;;;;;;;;;;;;;;;;
2022/04/21 10:28:19;;;;;;;;;;;;;;;;;;;;;
2022/04/21 10:32:10;;;;;;;;;;;;;;;18.08;40.41;100734.89;101912;1340;61391;-82
2022/04/21 10:34:59;;;;;;;;;;;;;;;;;;;;;
2022/04/21 10:38:01;;;;;;;;;;;;;;;;;;;;;
2022/04/21 10:41:07;;;;;;;;;;;;;;;18.09;40.37;100739.83;101741;1341;73714;-81
2022/04/21 10:44:14;;;;;;;;;;;;;;;18.09;40.49;100737.85;101561;1344;61250;-84
2022/04/21 10:48:04;;;;;;;;;;;;;;;18.09;40.52;100741.42;101677;1345;61349;-83
2022/04/21 10:51:29;;;;;;;;;;;;;;;18.09;40.49;100740.18;101732;1345;72897;-87
2022/04/21 10:57:38;;;;;;;;;;;;;;;;;;;;;
2022/04/21 11:00:57;;;;;;;;;;;;;;;;;;;;;
2022/04/21 11:03:59;;;;;;;;;;;;;;;18.08;40.47;100740.91;102022;1338;71407;-82
2022/04/21 11:07:14;;;;;;;;;;;;;;;18.09;40.52;100739.29;101891;1338;75097;-80
2022/04/21 11:10:33;;;;;;;;;;;;;;;;;;;;;
2022/04/21 11:17:02;;;;;;;;;;;;;;;18.11;40.56;100726.04;102371;1332;73941;-85
2022/04/21 11:20:42;;;;;;;;;;;;;;;;;;;;;
2022/04/21 11:24:01;;;;;;;;;;;;;;;;;;;;;
2022/04/21 11:27:46;;;;;;;;;;;;;;;18.11;40.77;100734.91;102290;1335;61303;-87
2022/04/21 11:30:55;;;;;;;;;;;;;;;;;;;;;
2022/04/21 11:34:19;;;;;;;;;;;;;;;;;;;;;
2022/04/21 11:37:16;;;;;;;;;;;;;;;;;;;;;
2022/04/21 11:44:25;;;;;;;;;;;;;;;;;;;;;
2022/04/21 11:47:57;;;;;;;;;;;;;;;18.12;40.94;100709.72;101604;1346;74875;-85
2022/04/21 11:51:03;;;;;;;;;;;;;;;18.12;40.93;100706.69;101644;1347;61215;-85
2022/04/21 11:53:55;;;;;;;;;;;;;;;18.13;41.00;100698.45;101551;1347;61462;-86
2022/04/21 11:56:51;;;;;;;;;;;;;;;;;;;;;
2022/04/21 12:00:01;;;;;;;;;;;;;;;18.13;41.09;100704.13;101481;1350;73580;-90
2022/04/21 12:13:01;;;;;;;;;;;;;;;18.13;41.21;100697.55;101053;1356;75795;-86
2022/04/21 12:15:56;;;;;;;;;;;;;;;18.13;41.20;100690.25;100608;1360;61301;-82
2022/04/21 12:19:05;;;;;;;;;;;;;;;18.14;41.06;100689.85;100650;1359;61743;-85
2022/04/21 12:22:15;;;;;;;;;;;;;;;18.14;41.25;100687.52;101059;1351;73098;-84
2022/04/21 12:28:37;;;;;;;;;;;;;;;;;;;;;
2022/04/21 12:31:53;;;;;;;;;;;;;;;;;;;;;
2022/04/21 12:35:20;;;;;;;;;;;;;;;18.14;41.28;100687.31;101598;1348;72886;-86
2022/04/21 12:41:31;;;;;;;;;;;;;;;18.15;41.41;100689.05;101581;1346;61237;-81
2022/04/21 12:44:27;;;;;;;;;;;;;;;;;;;;;
2022/04/21 12:47:14;;;;;;;;;;;;;;;;;;;;;
2022/04/21 12:50:23;;;;;;;;;;;;;;;18.16;41.43;100666.55;101955;1337;73455;-82
2022/04/21 12:53:24;;;;;;;;;;;;;;;18.17;41.53;100665.45;102017;1337;61326;-82
2022/04/21 12:56:12;;;;;;;;;;;;;;;18.17;41.49;100671.14;102048;1338;61208;-84
2022/04/21 12:59:06;;;;;;;;;;;;;;;18.17;41.61;100673.13;102118;1335;73862;-83
2022/04/21 13:02:03;;;;;;;;;;;;;;;18.16;41.40;100678.45;102084;1335;76517;-84
2022/04/21 13:04:53;;;;;;;;;;;;;;;18.17;41.46;100679.83;102343;1335;61305;-84
2022/04/21 13:08:07;;;;;;;;;;;;;;;;;;;;;
2022/04/21 13:11:20;;;;;;;;;;;;;;;18.17;41.49;100678.27;102385;1329;73026;-81
2022/04/21 13:14:50;;;;;;;;;;;;;;;18.17;41.48;100680.56;102746;1329;75024;-80
2022/04/21 13:17:11;;;;;;;;;;;;;;;18.17;41.53;100674.89;102573;1329;61445;-81
2022/04/21 13:23:25;;;;;;;;;;;;;;;18.17;41.53;100673.61;102482;1328;74031;-82
2022/04/21 13:29:04;;;;;;;;;;;;;;;18.17;41.63;100669.52;102330;1331;61644;-86
2022/04/21 13:34:57;;;;;;;;;;;;;;;18.18;41.46;100669.84;102629;1326;72952;-83
2022/04/21 13:38:02;;;;;;;;;;;;;;;;;;;;;
2022/04/21 13:40:51;;;;;;;;;;;;;;;18.18;41.51;100658.25;102822;1326;61213;-82
2022/04/21 13:44:00;;;;;;;;;;;;;;;18.17;41.65;100657.58;102714;1324;61390;-86
2022/04/21 13:46:58;;;;;;;;;;;;;;;18.18;41.61;100669.31;102532;1331;71928;-79
2022/04/21 13:49:54;;;;;;;;;;;;;;;18.18;41.68;100665.91;102408;1332;75721;-81
2022/04/21 13:52:58;;;;;;;;;;;;;;;;;;;;;
2022/04/21 13:55:46;;;;;;;;;;;;;;;18.17;41.60;100665.77;102029;1338;61428;-82
2022/04/21 13:59:13;;;;;;;;;;;;;;;18.18;41.66;100662.36;101729;1342;74754;-82
2022/04/21 14:02:06;;;;;;;;;;;;;;;18.18;41.63;100664.51;101650;1347;75868;-82
2022/04/21 14:04:58;;;;;;;;;;;;;;;18.18;41.75;100661.13;101686;1347;61367;-82
2022/04/21 14:11:12;;;;;;;;;;;;;;;;;;;;;
2022/04/21 14:14:08;;;;;;;;;;;;;;;;;;;;;
2022/04/21 14:17:10;;;;;;;;;;;;;;;;;;;;;
2022/04/21 14:20:39;;;;;;;;;;;;;;;18.18;41.63;100673.52;100857;1357;61375;-83
2022/04/21 14:23:34;;;;;;;;;;;;;;;;;;;;;
2022/04/21 14:26:45;;;;;;;;;;;;;;;18.19;41.83;100677.58;101404;1348;75987;-82
2022/04/21 14:29:50;;;;;;;;;;;;;;;18.19;41.89;100676.31;101519;1350;61197;-82
2022/04/21 14:32:56;;;;;;;;;;;;;;;18.20;41.99;100678.76;101443;1351;61137;-83
2022/04/21 14:35:56;;;;;;;;;;;;;;;;;;;;;
2022/04/21 14:49:07;;;;;;;;;;;;;;;18.23;42.01;100668.26;100932;1354;71567;-84
2022/04/21 14:52:58;;;;;;;;;;;;;;;18.24;41.95;100665.34;101071;1354;73642;-85
2022/04/21 14:56:13;;;;;;;;;;;;;;;18.24;42.12;100661.58;100759;1357;61257;-82
2022/04/21 15:01:42;;;;;;;;;;;;;;;;;;;;;
2022/04/21 15:04:57;;;;;;;;;;;;;;;18.25;42.03;100657.23;100323;1362;76445;-88
2022/04/21 15:11:09;;;;;;;;;;;;;;;18.26;41.88;100661.81;99783;1368;61520;-84
2022/04/21 15:14:36;;;;;;;;;;;;;;;18.28;41.94;100657.84;99722;1368;72695;-83
2022/04/21 15:17:40;;;;;;;;;;;;;;;;;;;;;
2022/04/21 15:23:36;;;;;;;;;;;;;;;18.29;41.76;100657.95;99805;1367;61251;-81
2022/04/21 15:26:45;;;;;;;;;;;;;;;18.29;41.88;100656.88;100191;1365;73805;-80
2022/04/21 15:29:55;;;;;;;;;;;;;;;18.29;41.81;100659.71;100028;1364;73614;-83
2022/04/21 15:32:33;;;;;;;;;;;;;;;18.29;41.76;100661.15;100472;1358;61291;-89
2022/04/21 15:35:42;;;;;;;;;;;;;;;18.28;41.82;100654.95;100416;1362;61363;-83
2022/04/21 15:38:38;;;;;;;;;;;;;;;;;;;;;
2022/04/21 15:42:29;;;;;;;;;;;;;;;18.27;41.76;100665.54;100793;1357;73551;-83
2022/04/21 15:45:08;;;;;;;;;;;;;;;18.26;41.73;100666.66;100575;1359;61793;-82
2022/04/21 15:48:15;;;;;;;;;;;;;;;18.25;41.80;100672.23;100942;1348;61810;-82
2022/04/21 16:00:46;;;;;;;;;;;;;;;;;;;;;
2022/04/21 16:04:23;;;;;;;;;;;;;;;;;;;;;
2022/04/21 16:08:04;;;;;;;;;;;;;;;18.20;41.86;100664.56;101777;1341;76310;-81
2022/04/21 16:10:41;;;;;;;;;;;;;;;18.19;41.79;100663.70;101429;1346;61368;-80
2022/04/21 16:13:23;;;;;;;;;;;;;;;18.18;41.79;100667.14;101539;1345;61656;-80
2022/04/21 16:16:31;;;;;;;;;;;;;;;18.18;41.91;100668.19;101525;1348;71559;-81
2022/04/21 16:19:57;;;;;;;;;;;;;;;18.18;41.85;100676.02;101552;1348;74810;-85
2022/04/21 16:22:43;;;;;;;;;;;;;;;18.18;41.93;100674.64;101597;1346;61318;-81
2022/04/21 16:25:45;;;;;;;;;;;;;;;;;;;;;
2022/04/21 16:28:46;;;;;;;;;;;;;;;;;;;;;
2022/04/21 16:31:31;;;;;;;;;;;;;;;18.17;41.83;100673.98;101641;1342;74643;-87
2022/04/21 16:34:35;;;;;;;;;;;;;;;18.16;41.91;100672.77;101714;1341;61320;-82
2022/04/21 16:37:41;;;;;;;;;;;;;;;;;;;;;
2022/04/21 16:40:40;;;;;;;;;;;;;;;;;;;;;
2022/04/21 16:43:30;;;;;;;;;;;;;;;18.15;41.82;100666.65;102120;1332;75401;-84
2022/04/21 16:49:58;;;;;;;;;;;;;;;;;;;;;
2022/04/21 16:52:47;;;;;;;;;;;;;;;18.14;41.95;100673.98;102677;1329;74288;-82
2022/04/21 16:56:00;;;;;;;;;;;;;;;;;;;;;
2022/04/21 16:58:57;;;;;;;;;;;;;;;18.13;41.86;100684.90;103005;1321;61285;-81
2022/04/21 17:05:47;;;;;;;;;;;;;;;;;;;;;
2022/04/21 17:08:25;;;;;;;;;;;;;;;18.13;41.93;100679.08;102968;1326;75914;-85
2022/04/21 17:11:31;;;;;;;;;;;;;;;18.11;42.00;100678.23;102913;1326;61792;-79
2022/04/21 17:15:06;;;;;;;;;;;;;;;18.12;42.01;100678.06;102534;1332;61567;-84
2022/04/21 17:18:13;;;;;;;;;;;;;;;18.11;42.07;100680.23;102264;1332;72798;-84
2022/04/21 17:21:08;;;;;;;;;;;;;;;;;;;;;
2022/04/21 17:24:33;;;;;;;;;;;;;;;18.10;42.02;100682.75;102019;1337;61328;-82
2022/04/21 17:27:31;;;;;;;;;;;;;;;18.10;42.03;100682.58;101901;1338;61204;-81
2022/04/21 17:30:49;;;;;;;;;;;;;;;18.10;42.04;100683.13;101918;1338;71639;-82
2022/04/21 17:33:43;;;;;;;;;;;;;;;;;;;;;
2022/04/21 17:36:42;;;;;;;;;;;;;;;;;;;;;
2022/04/21 17:39:48;;;;;;;;;;;;;;;18.08;42.09;100686.60;101890;1337;61533;-80
2022/04/21 17:42:35;;;;;;;;;;;;;;;18.08;42.03;100685.54;101803;1338;71704;-81
2022/04/21 17:45:06;;;;;;;;;;;;;;;18.08;42.09;100689.13;102001;1332;75052;-79
2022/04/21 17:48:26;;;;;;;;;;;;;;;;;;;;;
2022/04/21 17:51:30;;;;;;;;;;;;;;;18.07;42.11;100701.27;102097;1335;61202;-83
2022/04/21 17:54:54;;;;;;;;;;;;;;;18.07;42.19;100700.20;102128;1332;72923;-81
2022/04/21 17:58:00;;;;;;;;;;;;;;;18.07;42.05;100699.34;102166;1333;74725;-83
2022/04/21 18:03:51;;;;;;;;;;;;;;;18.06;42.09;100708.64;102238;1329;61250;-81
2022/04/21 18:06:54;;;;;;;;;;;;;;;18.06;42.23;100710.24;102321;1331;72256;-83
2022/04/21 18:09:41;;;;;;;;;;;;;;;;;;;;;
2022/04/21 18:15:53;;;;;;;;;;;;;;;;;;;;;
2022/04/21 18:18:59;;;;;;;;;;;;;;;;;;;;;
2022/04/21 18:21:54;;;;;;;;;;;;;;;18.05;42.09;100710.65;101943;1337;73667;-81
2022/04/21 18:25:03;;;;;;;;;;;;;;;18.05;42.20;100712.45;101710;1341;61346;-81
2022/04/21 18:28:07;;;;;;;;;;;;;;;18.05;42.17;100705.35;101686;1341;61739;-80
2022/04/21 18:30:54;;;;;;;;;;;;;;;18.05;42.17;100708.73;101488;1344;73760;-81
2022/04/21 18:34:21;;;;;;;;;;;;;;;18.05;42.22;100711.91;101563;1341;73687;-82
2022/04/21 18:37:05;;;;;;;;;;;;;;;;;;;;;
2022/04/21 18:40:19;;;;;;;;;;;;;;;18.04;42.20;100723.54;101667;1344;61208;-80
2022/04/21 18:43:39;;;;;;;;;;;;;;;18.04;42.26;100725.33;101754;1344;74348;-82
2022/04/21 18:46:55;;;;;;;;;;;;;;;;;;;;;
2022/04/21 18:49:35;;;;;;;;;;;;;;;18.04;42.16;100719.30;99580;1347;4846332;-80
2022/04/21 18:55:12;;;;;;;;;;;;;;;18.02;42.14;100726.33;101740;1344;75937;-82
2022/04/21 18:58:30;;;;;;;;;;;;;;;18.02;42.23;100727.43;101835;1340;61407;-86
2022/04/21 19:01:36;;;;;;;;;;;;;;;18.02;42.19;100726.38;101912;1335;60646;-82
2022/04/21 19:04:25;;;;;;;;;;;;;;;18.01;42.19;100725.14;102175;1335;73160;-80
2022/04/21 19:07:20;;;;;;;;;;;;;;;;;;;;;
2022/04/21 19:10:06;;;;;;;;;;;;;;;18.01;42.27;100723.76;102555;1332;61165;-79
2022/04/21 19:16:09;;;;;;;;;;;;;;;18.00;42.13;100713.14;102284;1335;72872;-84
2022/04/21 19:20:00;;;;;;;;;;;;;;;17.99;42.28;100711.36;102285;1334;73602;-81
2022/04/21 19:22:35;;;;;;;;;;;;;;;;;;;;;
2022/04/21 19:25:51;;;;;;;;;;;;;;;;;;;;;
2022/04/21 19:28:40;;;;;;;;;;;;;;;17.99;42.21;100707.31;101940;1339;74402;-86
2022/04/21 19:32:08;;;;;;;;;;;;;;;;;;;;;
2022/04/21 19:38:34;;;;;;;;;;;;;;;;;;;;;
2022/04/21 19:41:40;;;;;;;;;;;;;;;17.97;42.32;100692.44;101698;1344;71732;-84
2022/04/21 19:45:15;;;;;;;;;;;;;;;17.98;42.22;100694.77;101784;1344;73572;-81
2022/04/21 19:47:59;;;;;;;;;;;;;;;17.98;42.24;100689.41;101779;1341;61330;-83
2022/04/21 19:51:07;;;;;;;;;;;;;;;17.97;42.31;100694.76;101839;1341;61364;-83
2022/04/21 19:54:20;;;;;;;;;;;;;;;17.98;42.32;100696.52;102227;1335;71675;-83
2022/04/21 19:57:29;;;;;;;;;;;;;;;;;;;;;
2022/04/21 20:00:39;;;;;;;;;;;;;;;17.97;42.34;100700.50;102263;1329;61491;-84
2022/04/21 20:04:03;;;;;;;;;;;;;;;;;;;;;
2022/04/21 20:10:24;;;;;;;;;;;;;;;17.97;42.41;100710.29;102504;1331;73657;-84
2022/04/21 20:13:19;;;;;;;;;;;;;;;17.96;42.28;100713.88;102315;1335;61673;-83
2022/04/21 20:16:25;;;;;;;;;;;;;;;17.96;42.41;100711.55;102465;1332;61329;-85
2022/04/21 20:23:41;;;;;;;;;;;;;;;17.96;42.35;100705.91;102506;1332;72499;-82
2022/04/21 20:29:29;;;;;;;;;;;;;;;17.96;42.44;100702.52;102398;1335;61205;-77
2022/04/21 20:32:18;;;;;;;;;;;;;;;17.95;42.51;100697.94;102000;1333;73772;-82
2022/04/21 20:35:34;;;;;;;;;;;;;;;;;;;;;
2022/04/21 20:38:18;;;;;;;;;;;;;;;17.94;42.45;100697.06;102146;1335;61198;-86
2022/04/21 20:41:35;;;;;;;;;;;;;;;;;;;;;
2022/04/21 20:44:24;;;;;;;;;;;;;;;17.93;42.43;100695.85;101825;1341;71828;-81
2022/04/21 20:47:58;;;;;;;;;;;;;;;17.93;42.35;100691.77;101901;1338;75145;-79
2022/04/21 20:50:21;;;;;;;;;;;;;;;;;;;;;
2022/04/21 20:53:10;;;;;;;;;;;;;;;17.92;42.53;100688.25;101931;1338;61381;-84
2022/04/21 20:56:37;;;;;;;;;;;;;;;17.93;42.35;100685.95;101835;1340;74351;-81
2022/04/21 20:59:45;;;;;;;;;;;;;;;17.92;42.44;100686.31;101669;1346;76377;-89
2022/04/21 21:02:40;;;;;;;;;;;;;;;17.93;42.48;100687.89;101733;1340;61662;-84
2022/04/21 21:06:06;;;;;;;;;;;;;;;17.92;42.40;100688.98;101835;1339;61723;-83
2022/04/21 21:08:54;;;;;;;;;;;;;;;17.92;42.49;100688.64;101773;1341;73652;-78
2022/04/21 21:11:43;;;;;;;;;;;;;;;17.91;42.48;100686.88;101880;1341;76097;-83
2022/04/21 21:15:02;;;;;;;;;;;;;;;;;;;;;
2022/04/21 21:18:45;;;;;;;;;;;;;;;17.91;42.42;100679.60;101609;1347;61747;-81
2022/04/21 21:21:13;;;;;;;;;;;;;;;17.91;42.57;100686.34;101699;1341;74078;-84
2022/04/21 21:24:18;;;;;;;;;;;;;;;;;;;;;
2022/04/21 21:27:47;;;;;;;;;;;;;;;17.91;42.51;100697.21;101732;1347;62455;-80
2022/04/21 21:30:54;;;;;;;;;;;;;;;17.91;42.52;100691.73;101705;1347;61250;-86
2022/04/21 21:34:45;;;;;;;;;;;;;;;17.90;42.46;100693.69;101579;1346;71734;-85
2022/04/21 21:37:24;;;;;;;;;;;;;;;17.91;42.58;100691.54;101671;1347;75882;-87
2022/04/21 21:40:21;;;;;;;;;;;;;;;;;;;;;
2022/04/21 21:44:12;;;;;;;;;;;;;;;17.90;42.51;100688.36;101741;1347;61261;-82
2022/04/21 21:46:46;;;;;;;;;;;;;;;17.90;42.50;100689.64;101726;1344;74292;-82
2022/04/21 21:52:59;;;;;;;;;;;;;;;17.90;42.46;100696.21;102294;1332;61214;-84
2022/04/21 21:56:15;;;;;;;;;;;;;;;;;;;;;
2022/04/21 21:59:28;;;;;;;;;;;;;;;17.89;42.41;100700.51;102495;1332;73937;-84
2022/04/21 22:02:34;;;;;;;;;;;;;;;17.89;42.62;100698.20;102519;1332;74762;-82
2022/04/21 22:05:38;;;;;;;;;;;;;;;;;;;;;
2022/04/21 22:09:05;;;;;;;;;;;;;;;;;;;;;
2022/04/21 22:12:31;;;;;;;;;;;;;;;17.89;42.48;100698.06;102286;1335;71614;-84
2022/04/21 22:15:19;;;;;;;;;;;;;;;17.89;42.48;100700.19;102513;1332;75855;-84